Winschoten, Netherlands
Current Conditions -  °F | °C
As of 5:55 AM on Saturday 20 Dec 2014 (Local Time) from EHGG Reporting Station
Overcast Overcast  
Wind Chill: 36°   Ceiling: 3700
Heat Index: 45°   Visibility: 6mi
Dew Point: 37°   Wind: 22mph
Humidity: 76%   Direction: 250°WSW
Pressure: 29.91"   Gusts: NA
Location:  53.14°N, 7.03°E
Report Text: EHGG 200455Z AUTO 25019KT 220V280 9999 FEW024 BKN037 OVC04307/03 Q1013
Loading
Personal Weather Stations






























Interactive Weather Map New forecast layout! Learn more

10-Day Weather Forecast

Advertisements
Track Severe Weather on mobile